Time;durP1;ratioP1;P1;durP2;ratioP2;P2;SDS_P1;SDS_P2;PMS_P1;PMS_P2;Temp;Humidity;BMP_temperature;BMP_pressure;BME280_temperature;BME280_humidity;BME280_pressure;Samples;Min_cycle;Max_cycle;Signal;HPM_P1;HPM_P2
2023/05/29 00:02:04;;;;;;;9.57;3.00;;;13.10;76.20;;;;;;5075995;28;20043;-71
2023/05/29 00:04:29;;;;;;;10.00;3.10;;;13.00;76.20;;;;;;5073965;28;20059;-70
2023/05/29 00:06:55;;;;;;;12.13;3.33;;;13.00;76.40;;;;;;5071414;28;20021;-70
2023/05/29 00:09:21;;;;;;;10.85;2.83;;;13.00;76.40;;;;;;5071098;28;20115;-70
2023/05/29 00:11:50;;;;;;;14.45;3.47;;;13.00;76.40;;;;;;5074521;28;20028;-70
2023/05/29 00:14:19;;;;;;;11.15;3.20;;;12.90;76.50;;;;;;5074440;28;20020;-70
2023/05/29 00:16:46;;;;;;;10.85;2.78;;;12.80;76.60;;;;;;5069914;28;20070;-70
2023/05/29 00:19:13;;;;;;;8.93;2.80;;;12.80;76.70;;;;;;5077637;28;20081;-71
2023/05/29 00:21:39;;;;;;;8.63;2.58;;;12.70;76.80;;;;;;5076217;28;20104;-69
2023/05/29 00:24:07;;;;;;;11.50;2.67;;;12.70;76.60;;;;;;5071562;28;20155;-70
2023/05/29 00:26:33;;;;;;;12.52;3.08;;;12.70;76.50;;;;;;5076121;28;20028;-72
2023/05/29 00:28:59;;;;;;;10.82;3.00;;;12.70;76.50;;;;;;5072907;28;20024;-71
2023/05/29 00:31:24;;;;;;;8.15;2.50;;;12.60;76.60;;;;;;5072706;28;20506;-72
2023/05/29 00:33:50;;;;;;;8.93;2.70;;;12.60;76.60;;;;;;5071024;28;20028;-71
2023/05/29 00:36:16;;;;;;;9.85;2.97;;;12.60;76.50;;;;;;5077315;28;20451;-71
2023/05/29 00:38:41;;;;;;;7.82;2.78;;;12.60;76.40;;;;;;5085301;28;20021;-72
2023/05/29 00:41:12;;;;;;;9.13;2.58;;;12.50;76.30;;;;;;5074375;28;20033;-70
2023/05/29 00:43:38;;;;;;;11.80;2.92;;;12.50;76.20;;;;;;5070989;28;20119;-70
2023/05/29 00:46:04;;;;;;;9.70;2.70;;;12.50;76.10;;;;;;5075336;28;20494;-71
2023/05/29 00:48:30;;;;;;;12.98;3.10;;;12.40;75.90;;;;;;5097599;27;20024;-71
2023/05/29 00:50:55;;;;;;;10.88;2.63;;;12.40;76.00;;;;;;5074191;28;20016;-70
2023/05/29 00:53:24;;;;;;;8.50;2.40;;;12.40;75.90;;;;;;5074840;28;20028;-71
2023/05/29 00:55:50;;;;;;;9.57;2.50;;;12.40;75.70;;;;;;5070729;28;20020;-71
2023/05/29 00:58:16;;;;;;;9.63;2.50;;;12.40;75.50;;;;;;5073803;28;20031;-70
2023/05/29 01:00:42;;;;;;;8.40;2.42;;;12.40;75.40;;;;;;5073274;28;20036;-70
2023/05/29 01:03:09;;;;;;;10.20;2.42;;;12.40;75.40;;;;;;5075110;28;20107;-70
2023/05/29 01:05:35;;;;;;;8.73;2.53;;;12.40;75.50;;;;;;5072203;28;20093;-70
2023/05/29 01:08:02;;;;;;;9.15;2.63;;;12.40;75.40;;;;;;5073956;28;20020;-69
2023/05/29 01:10:28;;;;;;;7.85;2.08;;;12.40;75.20;;;;;;5072846;28;20032;-71
2023/05/29 01:13:02;;;;;;;10.60;2.47;;;12.40;75.00;;;;;;5078845;28;20024;-72
2023/05/29 01:15:57;;;;;;;7.72;2.35;;;12.30;75.10;;;;;;5076273;28;20477;-70
2023/05/29 01:18:46;;;;;;;9.32;2.33;;;12.20;75.00;;;;;;5053017;28;20454;-71
2023/05/29 01:21:42;;;;;;;7.55;2.25;;;12.20;75.00;;;;;;5075266;28;20564;-70
2023/05/29 01:24:29;;;;;;;8.13;2.30;;;12.30;75.00;;;;;;5071629;28;20044;-70
2023/05/29 01:27:06;;;;;;;6.30;2.03;;;12.20;74.90;;;;;;5071005;28;20101;-71
2023/05/29 01:29:34;;;;;;;8.52;2.40;;;12.20;74.90;;;;;;5071306;28;20025;-70
2023/05/29 01:32:01;;;;;;;7.40;2.17;;;12.20;74.90;;;;;;5074466;28;20025;-71
2023/05/29 01:34:28;;;;;;;10.00;2.60;;;12.20;74.80;;;;;;5073799;28;20548;-71
2023/05/29 01:36:53;;;;;;;8.95;2.30;;;12.20;75.00;;;;;;5071772;28;20029;-71
2023/05/29 01:39:20;;;;;;;5.68;2.30;;;12.20;75.10;;;;;;5077503;28;20089;-70
2023/05/29 01:41:47;;;;;;;9.30;2.45;;;12.10;75.10;;;;;;5070162;28;20115;-71
2023/05/29 01:44:14;;;;;;;7.88;2.22;;;12.10;75.10;;;;;;5071836;28;20017;-72
2023/05/29 01:46:45;;;;;;;9.02;2.47;;;12.10;75.20;;;;;;5071776;28;20020;-71
2023/05/29 01:49:11;;;;;;;8.15;2.60;;;12.00;75.50;;;;;;5074813;28;20443;-71
2023/05/29 01:51:41;;;;;;;8.48;2.25;;;12.00;75.60;;;;;;5080615;28;20086;-71
2023/05/29 01:54:07;;;;;;;8.90;2.55;;;12.00;75.60;;;;;;5073886;28;20047;-71
2023/05/29 01:56:33;;;;;;;11.63;2.45;;;12.00;75.70;;;;;;5072452;28;20040;-71
2023/05/29 01:59:01;;;;;;;10.27;2.40;;;11.90;75.70;;;;;;5073249;28;20371;-70
2023/05/29 02:01:27;;;;;;;7.80;2.20;;;11.90;75.90;;;;;;5066308;28;20511;-71
2023/05/29 02:03:52;;;;;;;8.45;2.30;;;11.90;75.90;;;;;;5069965;28;20052;-71
2023/05/29 02:06:19;;;;;;;10.00;2.63;;;11.90;76.00;;;;;;5071912;28;20371;-70
2023/05/29 02:08:44;;;;;;;11.45;2.90;;;11.80;76.40;;;;;;5072330;28;20029;-70
2023/05/29 02:11:10;;;;;;;11.30;2.80;;;11.80;76.60;;;;;;5075200;28;20040;-67
2023/05/29 02:13:35;;;;;;;11.30;2.67;;;11.70;76.70;;;;;;5068019;28;20113;-70
2023/05/29 02:16:01;;;;;;;11.48;2.55;;;11.70;77.20;;;;;;5077363;28;20052;-70
2023/05/29 02:18:26;;;;;;;10.15;2.60;;;11.60;77.30;;;;;;5079486;28;20052;-72
2023/05/29 02:20:52;;;;;;;12.10;3.25;;;11.60;77.50;;;;;;5079040;28;20517;-72
2023/05/29 02:23:19;;;;;;;10.35;2.42;;;11.60;77.70;;;;;;5084326;28;20418;-72
2023/05/29 02:25:45;;;;;;;11.00;2.72;;;11.50;77.80;;;;;;5077406;28;20028;-71
2023/05/29 02:28:10;;;;;;;9.63;2.72;;;11.50;77.90;;;;;;5076210;28;20587;-72
2023/05/29 02:30:36;;;;;;;13.13;2.97;;;11.50;78.10;;;;;;5076045;28;20013;-72
2023/05/29 02:33:01;;;;;;;9.38;2.28;;;11.50;78.10;;;;;;5074785;28;20036;-72
2023/05/29 02:35:27;;;;;;;10.98;2.75;;;11.40;78.20;;;;;;5072184;28;20379;-68
2023/05/29 02:37:53;;;;;;;15.70;3.63;;;11.40;78.30;;;;;;5072978;28;20026;-71
2023/05/29 02:40:20;;;;;;;8.63;2.72;;;11.40;78.60;;;;;;5086856;28;20041;-70
2023/05/29 02:42:46;;;;;;;8.75;3.35;;;11.40;78.80;;;;;;5075977;28;20020;-70
2023/05/29 02:45:12;;;;;;;15.02;3.08;;;11.30;78.80;;;;;;5082354;28;20099;-72
2023/05/29 02:47:37;;;;;;;12.88;2.72;;;11.30;79.00;;;;;;5073158;28;20150;-71
2023/05/29 02:50:04;;;;;;;10.10;2.67;;;11.30;79.00;;;;;;5081217;28;20020;-71
2023/05/29 02:52:33;;;;;;;12.65;3.58;;;11.30;79.20;;;;;;5081953;28;20489;-72
2023/05/29 02:54:58;;;;;;;9.43;2.90;;;11.30;79.20;;;;;;5073521;28;20035;-71
2023/05/29 02:57:24;;;;;;;11.73;3.20;;;11.20;79.30;;;;;;5086571;28;20024;-70
2023/05/29 02:59:51;;;;;;;11.07;2.83;;;11.20;79.40;;;;;;5073806;28;20028;-70
2023/05/29 03:02:17;;;;;;;9.13;2.40;;;11.20;79.50;;;;;;5070680;28;20465;-70
2023/05/29 03:04:43;;;;;;;10.00;3.35;;;11.10;79.50;;;;;;5073674;28;20029;-70
2023/05/29 03:07:09;;;;;;;9.95;2.90;;;11.00;79.70;;;;;;5085039;28;20747;-71
2023/05/29 03:09:35;;;;;;;13.38;2.90;;;11.10;79.90;;;;;;5072074;28;20029;-71
2023/05/29 03:12:01;;;;;;;11.75;2.72;;;11.10;80.00;;;;;;5071178;28;20016;-68
2023/05/29 03:14:27;;;;;;;12.13;2.90;;;11.00;80.00;;;;;;5080376;28;20020;-71
2023/05/29 03:16:53;;;;;;;8.98;3.03;;;11.00;80.20;;;;;;5084199;28;20107;-70
2023/05/29 03:19:19;;;;;;;10.60;2.70;;;11.00;80.40;;;;;;5074718;28;20782;-70
2023/05/29 03:21:45;;;;;;;10.10;2.70;;;10.90;80.50;;;;;;5081414;28;20108;-70
2023/05/29 03:24:10;;;;;;;9.68;2.50;;;10.90;80.80;;;;;;5079125;28;20470;-70
2023/05/29 03:26:36;;;;;;;10.57;2.70;;;10.80;80.90;;;;;;5086216;28;20020;-69
2023/05/29 03:29:02;;;;;;;11.35;2.80;;;10.80;81.10;;;;;;5079299;28;20043;-70
2023/05/29 03:31:28;;;;;;;14.30;2.78;;;10.80;81.20;;;;;;5067287;28;20107;-70
2023/05/29 03:33:53;;;;;;;15.43;3.30;;;10.80;81.30;;;;;;5074238;28;20375;-70
2023/05/29 03:36:19;;;;;;;11.35;2.92;;;10.80;81.50;;;;;;5082297;28;20491;-70
2023/05/29 03:38:44;;;;;;;11.45;3.22;;;10.80;81.60;;;;;;5074961;28;20020;-69
2023/05/29 03:41:10;;;;;;;12.82;3.20;;;10.80;81.60;;;;;;5080075;28;20047;-70
2023/05/29 03:43:36;;;;;;;7.63;2.50;;;10.80;81.70;;;;;;5078555;28;20568;-71
2023/05/29 03:46:02;;;;;;;9.40;2.90;;;10.80;81.60;;;;;;5079179;28;20446;-71
2023/05/29 03:48:28;;;;;;;10.30;3.35;;;10.80;81.50;;;;;;5081052;28;20737;-72
2023/05/29 03:50:53;;;;;;;9.73;2.95;;;10.80;81.50;;;;;;5080045;28;20472;-72
2023/05/29 03:53:19;;;;;;;9.95;3.15;;;10.80;81.60;;;;;;5078556;28;20024;-71
2023/05/29 03:55:44;;;;;;;8.90;2.65;;;10.80;81.60;;;;;;5070558;28;20076;-71
2023/05/29 03:58:12;;;;;;;8.43;2.60;;;10.80;81.40;;;;;;5078685;28;20063;-70
2023/05/29 04:00:38;;;;;;;11.93;3.10;;;10.90;81.30;;;;;;5070919;28;20062;-70
2023/05/29 04:03:04;;;;;;;11.63;2.60;;;10.90;81.40;;;;;;5076910;28;20099;-70
2023/05/29 04:05:30;;;;;;;9.90;2.60;;;10.90;81.30;;;;;;5073542;28;20107;-69
2023/05/29 04:07:56;;;;;;;8.98;2.75;;;10.90;81.20;;;;;;5078377;28;20017;-71
2023/05/29 04:10:22;;;;;;;15.43;3.47;;;11.00;81.10;;;;;;5072351;28;20035;-70
2023/05/29 04:12:47;;;;;;;12.10;2.95;;;11.00;81.20;;;;;;5071196;28;20040;-71
2023/05/29 04:15:13;;;;;;;10.93;3.17;;;11.00;80.90;;;;;;5072758;28;20113;-71
2023/05/29 04:17:38;;;;;;;12.40;2.92;;;11.00;80.80;;;;;;5082870;28;20027;-70
2023/05/29 04:20:07;;;;;;;11.45;2.80;;;11.00;80.70;;;;;;5088977;28;20453;-71
2023/05/29 04:22:33;;;;;;;8.73;2.70;;;11.10;80.60;;;;;;5085537;28;20024;-70
2023/05/29 04:24:59;;;;;;;8.23;2.45;;;11.10;80.40;;;;;;5084422;28;20017;-69
2023/05/29 04:27:25;;;;;;;10.77;2.85;;;11.10;80.30;;;;;;5088362;28;20087;-69
2023/05/29 04:29:50;;;;;;;9.02;2.55;;;11.10;80.50;;;;;;5080485;28;20394;-68
2023/05/29 04:32:16;;;;;;;10.55;3.03;;;11.10;80.40;;;;;;5089476;28;20484;-71
2023/05/29 04:34:44;;;;;;;8.32;2.50;;;11.10;80.30;;;;;;5070424;28;20027;-71
2023/05/29 04:37:09;;;;;;;9.75;2.40;;;11.10;80.10;;;;;;5072076;28;20036;-71
2023/05/29 04:39:35;;;;;;;10.20;3.28;;;11.20;80.10;;;;;;5076439;28;20020;-70
2023/05/29 04:42:01;;;;;;;11.52;2.63;;;11.20;79.90;;;;;;5083340;28;20046;-69
2023/05/29 04:44:26;;;;;;;10.48;2.90;;;11.20;79.80;;;;;;5082951;28;20024;-71
2023/05/29 04:46:52;;;;;;;11.48;2.90;;;11.20;79.60;;;;;;5070278;28;20028;-71
2023/05/29 04:49:18;;;;;;;11.35;2.97;;;11.20;79.80;;;;;;5104009;28;20071;-70
2023/05/29 04:51:44;;;;;;;10.82;3.10;;;11.20;80.40;;;;;;5077780;28;20024;-71
2023/05/29 04:54:11;;;;;;;11.52;2.90;;;11.20;80.20;;;;;;5072961;28;20100;-71
2023/05/29 04:56:37;;;;;;;9.85;2.88;;;11.30;80.00;;;;;;5079323;28;20047;-70
2023/05/29 04:59:03;;;;;;;9.63;2.50;;;11.60;79.40;;;;;;5074973;28;20017;-70
2023/05/29 05:01:28;;;;;;;10.77;2.90;;;12.10;78.30;;;;;;5078360;28;20464;-70
2023/05/29 05:03:57;;;;;;;10.07;2.67;;;12.70;76.40;;;;;;5076656;28;20024;-69
2023/05/29 05:06:25;;;;;;;9.40;2.75;;;13.10;74.50;;;;;;5080379;28;20043;-70
2023/05/29 05:08:51;;;;;;;14.95;3.47;;;13.40;73.00;;;;;;5088760;28;20016;-69
2023/05/29 05:11:20;;;;;;;9.75;2.45;;;13.60;71.80;;;;;;5085708;28;20143;-69
2023/05/29 05:13:46;;;;;;;9.95;2.55;;;13.90;71.00;;;;;;5082684;28;20024;-69
2023/05/29 05:16:11;;;;;;;7.28;2.40;;;14.00;70.30;;;;;;5072174;28;20103;-67
2023/05/29 05:18:38;;;;;;;11.43;2.47;;;14.30;69.50;;;;;;5077126;28;20024;-70
2023/05/29 05:21:04;;;;;;;12.77;2.75;;;14.50;68.70;;;;;;5075154;28;20099;-68
2023/05/29 05:23:30;;;;;;;10.70;2.60;;;14.40;68.00;;;;;;5078718;28;20578;-68
2023/05/29 05:25:56;;;;;;;8.70;2.42;;;14.40;68.00;;;;;;5070532;28;20107;-67
2023/05/29 05:28:21;;;;;;;11.52;2.83;;;14.50;67.80;;;;;;5068172;28;20028;-69
2023/05/29 05:30:47;;;;;;;10.73;2.90;;;14.60;67.10;;;;;;5069190;28;20030;-69
2023/05/29 05:33:13;;;;;;;11.32;2.85;;;14.70;66.80;;;;;;5069226;28;20025;-70
2023/05/29 05:35:38;;;;;;;9.27;2.63;;;15.00;66.20;;;;;;5062605;28;20636;-69
2023/05/29 05:38:04;;;;;;;8.85;2.83;;;15.20;65.70;;;;;;5067159;28;20094;-70
2023/05/29 05:40:30;;;;;;;8.80;2.47;;;15.40;65.20;;;;;;5068987;28;20020;-70
2023/05/29 05:42:55;;;;;;;10.13;2.72;;;15.60;64.50;;;;;;5065421;28;20399;-70
2023/05/29 05:45:21;;;;;;;7.50;2.38;;;15.60;63.90;;;;;;5069326;28;20029;-70
2023/05/29 05:47:47;;;;;;;10.18;2.78;;;15.40;63.90;;;;;;5070958;28;20021;-72
2023/05/29 05:50:12;;;;;;;10.18;2.80;;;15.40;64.00;;;;;;5073784;28;20029;-73
2023/05/29 05:52:38;;;;;;;8.90;2.47;;;15.30;63.70;;;;;;5079641;28;20092;-73
2023/05/29 05:55:04;;;;;;;9.20;2.50;;;15.50;63.80;;;;;;5069534;28;20024;-73
2023/05/29 05:57:32;;;;;;;8.50;2.28;;;15.80;63.00;;;;;;5067211;28;20028;-71
2023/05/29 05:59:58;;;;;;;8.80;2.60;;;15.90;62.50;;;;;;5068247;28;20505;-72
2023/05/29 06:02:23;;;;;;;8.98;2.83;;;16.10;62.00;;;;;;5066804;28;20024;-72
2023/05/29 06:04:49;;;;;;;10.77;2.67;;;16.10;61.00;;;;;;5067140;28;20028;-71
2023/05/29 06:07:15;;;;;;;8.23;2.38;;;16.10;61.60;;;;;;5067930;28;20104;-71
2023/05/29 06:09:41;;;;;;;10.85;2.80;;;16.20;61.70;;;;;;5075000;28;20024;-71
2023/05/29 06:12:08;;;;;;;10.30;2.50;;;16.20;61.10;;;;;;5068976;28;20013;-72
2023/05/29 06:14:33;;;;;;;7.88;2.58;;;16.10;61.60;;;;;;5068719;28;20029;-71
2023/05/29 06:17:00;;;;;;;11.30;2.67;;;16.10;61.50;;;;;;5067559;28;20082;-71
2023/05/29 06:19:25;;;;;;;8.68;2.38;;;16.00;62.20;;;;;;5060609;28;20032;-71
2023/05/29 06:21:51;;;;;;;8.52;2.47;;;15.90;61.70;;;;;;5070765;28;20021;-72
2023/05/29 06:24:16;;;;;;;7.30;2.20;;;15.80;61.90;;;;;;5068851;28;20017;-72
2023/05/29 06:26:42;;;;;;;7.47;2.35;;;15.60;62.00;;;;;;5068691;28;20679;-72
2023/05/29 06:29:07;;;;;;;9.90;2.35;;;15.50;62.20;;;;;;5069784;28;20032;-71
2023/05/29 06:31:33;;;;;;;9.65;2.88;;;15.40;62.20;;;;;;5076312;28;20023;-72
2023/05/29 06:33:59;;;;;;;10.40;2.70;;;15.20;62.40;;;;;;5081842;28;20078;-72
2023/05/29 06:36:25;;;;;;;8.90;2.70;;;15.20;62.80;;;;;;5071328;28;20028;-72
2023/05/29 06:38:52;;;;;;;10.30;2.83;;;15.10;62.40;;;;;;5076354;28;20016;-72
2023/05/29 06:41:17;;;;;;;8.60;2.25;;;15.10;62.70;;;;;;5079115;28;20026;-72
2023/05/29 06:43:43;;;;;;;8.27;2.33;;;15.10;62.80;;;;;;5082746;28;20119;-72
2023/05/29 06:46:09;;;;;;;9.55;2.45;;;15.20;62.80;;;;;;5070762;28;20115;-72
2023/05/29 06:48:35;;;;;;;8.13;2.47;;;15.20;62.40;;;;;;5083157;28;20088;-72
2023/05/29 06:51:08;;;;;;;10.52;2.85;;;15.20;62.40;;;;;;5073789;28;20016;-71
2023/05/29 06:53:38;;;;;;;8.57;2.50;;;15.30;62.00;;;;;;5075986;28;20027;-72
2023/05/29 06:56:05;;;;;;;11.15;2.53;;;15.30;62.10;;;;;;5075671;28;20029;-72
2023/05/29 06:58:31;;;;;;;10.38;2.65;;;15.30;62.30;;;;;;5083054;28;20024;-73
2023/05/29 07:00:57;;;;;;;9.30;2.40;;;15.40;61.40;;;;;;5075027;28;20028;-73
2023/05/29 07:03:23;;;;;;;11.32;2.83;;;15.40;62.10;;;;;;5069112;28;20107;-73
2023/05/29 07:05:49;;;;;;;10.93;2.60;;;15.50;61.70;;;;;;5074486;28;20091;-72
2023/05/29 07:08:15;;;;;;;9.57;2.60;;;15.50;60.30;;;;;;5072573;28;20020;-72
2023/05/29 07:10:40;;;;;;;7.85;2.22;;;15.50;60.80;;;;;;5078564;28;20336;-72
2023/05/29 07:13:06;;;;;;;7.65;2.35;;;15.50;60.60;;;;;;5073421;28;20382;-72
2023/05/29 07:15:32;;;;;;;7.32;2.50;;;15.60;60.30;;;;;;5084221;28;20034;-70
2023/05/29 07:17:57;;;;;;;4.68;1.77;;;15.70;60.10;;;;;;5083070;28;20402;-72
2023/05/29 07:20:23;;;;;;;5.72;1.95;;;15.80;59.80;;;;;;5072803;28;20391;-73
2023/05/29 07:22:49;;;;;;;9.30;2.58;;;15.90;59.30;;;;;;5074178;28;20021;-72
2023/05/29 07:25:15;;;;;;;8.77;2.40;;;15.80;58.80;;;;;;5081556;28;20070;-72
2023/05/29 07:27:40;;;;;;;9.30;2.35;;;15.90;59.90;;;;;;5082228;28;20031;-72
2023/05/29 07:30:07;;;;;;;8.18;2.25;;;16.00;59.00;;;;;;5081493;28;20025;-72
2023/05/29 07:32:33;;;;;;;6.80;2.22;;;16.20;58.70;;;;;;5073232;28;20050;-71
2023/05/29 07:34:58;;;;;;;8.50;2.40;;;16.30;58.20;;;;;;5083290;28;20099;-72
2023/05/29 07:37:24;;;;;;;6.82;2.53;;;16.30;58.10;;;;;;5092804;28;20390;-72
2023/05/29 07:39:49;;;;;;;6.97;2.00;;;16.40;58.00;;;;;;5071715;28;20029;-73
2023/05/29 07:42:15;;;;;;;10.35;2.38;;;16.50;57.90;;;;;;5072714;28;20048;-73
2023/05/29 07:44:44;;;;;;;8.07;2.10;;;16.40;57.60;;;;;;5076099;28;20099;-72
2023/05/29 07:47:10;;;;;;;6.93;2.40;;;16.50;58.10;;;;;;5081664;28;20028;-73
2023/05/29 07:49:35;;;;;;;9.55;2.53;;;16.60;57.90;;;;;;5071502;28;20371;-73
2023/05/29 07:52:02;;;;;;;7.82;2.40;;;16.70;57.40;;;;;;5072155;28;20078;-72
2023/05/29 07:54:28;;;;;;;11.10;2.67;;;16.80;57.20;;;;;;5072546;28;20021;-72
2023/05/29 07:56:54;;;;;;;9.07;2.50;;;16.80;57.10;;;;;;5072076;28;20028;-73
2023/05/29 07:59:19;;;;;;;5.85;2.20;;;16.80;57.00;;;;;;5072326;28;20028;-73
2023/05/29 08:01:45;;;;;;;7.70;2.53;;;16.90;56.90;;;;;;5078656;28;20024;-72
2023/05/29 08:04:11;;;;;;;7.90;2.35;;;16.90;57.10;;;;;;5074187;28;20530;-72
2023/05/29 08:06:36;;;;;;;8.82;2.20;;;17.10;57.00;;;;;;5071683;28;20394;-73
2023/05/29 08:09:03;;;;;;;6.93;2.17;;;17.10;56.60;;;;;;5071957;28;20008;-72
2023/05/29 08:11:29;;;;;;;7.40;2.30;;;17.20;56.50;;;;;;5071627;28;20021;-72
2023/05/29 08:13:54;;;;;;;7.35;2.22;;;17.20;56.10;;;;;;5074440;28;20028;-71
2023/05/29 08:16:22;;;;;;;8.88;2.28;;;17.20;56.30;;;;;;5079878;28;20462;-72
2023/05/29 08:18:47;;;;;;;6.85;2.30;;;17.20;56.30;;;;;;5071499;28;20024;-71
2023/05/29 08:21:13;;;;;;;7.68;2.30;;;17.30;56.40;;;;;;5082089;28;20028;-73
2023/05/29 08:23:38;;;;;;;6.72;2.00;;;17.30;55.90;;;;;;5087187;28;20167;-71
2023/05/29 08:26:04;;;;;;;8.88;2.50;;;17.20;55.90;;;;;;5071012;28;20108;-73
2023/05/29 08:28:30;;;;;;;11.32;2.80;;;17.20;55.90;;;;;;5071274;28;20040;-73
2023/05/29 08:30:55;;;;;;;5.15;2.00;;;17.30;55.80;;;;;;5080405;28;20023;-70
2023/05/29 08:33:21;;;;;;;9.48;2.35;;;17.30;55.70;;;;;;5070540;28;20025;-72
2023/05/29 08:35:47;;;;;;;8.48;2.50;;;17.30;55.60;;;;;;5069333;28;20016;-73
2023/05/29 08:38:12;;;;;;;6.57;2.33;;;17.40;55.60;;;;;;5071464;28;20033;-72
2023/05/29 08:40:38;;;;;;;8.52;2.28;;;17.40;55.40;;;;;;5073085;28;20445;-70
2023/05/29 08:43:23;;;;;;;6.95;2.50;;;17.30;55.30;;;;;;5072833;28;20394;-74
2023/05/29 08:45:53;;;;;;;10.75;2.50;;;17.30;54.80;;;;;;5075572;28;20029;-73
2023/05/29 08:48:24;;;;;;;7.15;2.15;;;17.40;55.10;;;;;;5079082;28;20028;-74
2023/05/29 08:50:52;;;;;;;7.68;2.30;;;17.40;55.00;;;;;;5076035;28;20047;-72
2023/05/29 08:53:19;;;;;;;10.48;2.25;;;17.40;54.80;;;;;;5076530;28;20024;-73
2023/05/29 08:55:46;;;;;;;7.65;2.30;;;17.50;54.50;;;;;;5073019;28;20016;-73
2023/05/29 08:58:13;;;;;;;7.25;2.38;;;17.60;54.80;;;;;;5077074;28;20529;-72
2023/05/29 09:00:40;;;;;;;8.00;2.50;;;17.60;54.70;;;;;;5068774;28;20062;-74
2023/05/29 09:03:06;;;;;;;8.73;2.47;;;17.60;54.40;;;;;;5069458;28;20021;-73
2023/05/29 09:05:32;;;;;;;7.20;2.25;;;17.70;54.00;;;;;;5068438;28;20036;-73
2023/05/29 09:07:59;;;;;;;7.40;2.22;;;17.70;53.90;;;;;;5069154;28;20356;-74
2023/05/29 09:10:27;;;;;;;5.50;1.85;;;17.80;53.80;;;;;;5070514;28;20021;-71
2023/05/29 09:12:53;;;;;;;6.65;2.10;;;17.90;53.90;;;;;;5069854;28;20522;-72
2023/05/29 09:15:21;;;;;;;5.93;2.08;;;18.00;53.50;;;;;;5071240;28;20031;-71
2023/05/29 09:17:54;;;;;;;8.07;2.33;;;18.00;53.60;;;;;;5069995;28;20469;-73
2023/05/29 09:20:24;;;;;;;6.40;2.03;;;18.10;53.40;;;;;;5069863;28;20036;-72
2023/05/29 09:23:00;;;;;;;6.93;2.10;;;18.20;53.70;;;;;;5064592;28;20023;-72
2023/05/29 09:25:29;;;;;;;8.25;2.45;;;18.40;53.60;;;;;;5067989;28;20038;-72
2023/05/29 09:27:57;;;;;;;6.97;2.50;;;18.40;53.50;;;;;;5068861;28;20021;-72
2023/05/29 09:30:40;;;;;;;5.63;1.90;;;18.40;53.40;;;;;;5069559;28;20025;-73
2023/05/29 09:33:07;;;;;;;7.32;2.60;;;18.50;53.50;;;;;;5068740;28;20885;-70
2023/05/29 09:35:37;;;;;;;4.95;2.10;;;18.50;53.10;;;;;;5069573;28;20031;-72
2023/05/29 09:38:08;;;;;;;10.40;2.60;;;18.50;53.10;;;;;;5068783;28;20033;-73
2023/05/29 09:40:38;;;;;;;8.43;2.50;;;18.40;53.00;;;;;;5066736;28;20020;-73
2023/05/29 09:43:04;;;;;;;7.13;2.30;;;18.40;53.00;;;;;;5068662;28;20021;-72
2023/05/29 09:45:30;;;;;;;8.38;2.60;;;18.40;52.90;;;;;;5068922;28;20097;-69
2023/05/29 09:47:56;;;;;;;6.75;2.55;;;18.40;52.90;;;;;;5067576;28;20653;-72
2023/05/29 09:50:26;;;;;;;9.35;2.03;;;18.50;53.00;;;;;;5067049;28;20103;-71
2023/05/29 09:52:53;;;;;;;7.07;2.38;;;18.60;53.10;;;;;;5070182;28;20070;-73
2023/05/29 09:55:23;;;;;;;6.85;2.70;;;18.60;53.10;;;;;;5068722;28;20090;-71
2023/05/29 09:57:49;;;;;;;7.00;2.20;;;18.80;52.90;;;;;;5068757;28;20469;-72
2023/05/29 10:00:17;;;;;;;7.47;2.20;;;18.90;52.60;;;;;;5069032;28;20028;-73
2023/05/29 10:02:43;;;;;;;7.18;2.13;;;18.80;52.60;;;;;;5067286;28;20020;-75
2023/05/29 10:05:10;;;;;;;8.13;2.22;;;19.00;52.60;;;;;;5068734;28;20361;-72
2023/05/29 10:07:37;;;;;;;7.07;2.38;;;19.10;52.30;;;;;;5068712;28;20032;-73
2023/05/29 10:10:05;;;;;;;7.22;2.45;;;19.10;52.30;;;;;;5069556;28;20020;-72
2023/05/29 10:12:48;;;;;;;7.45;2.20;;;19.00;51.80;;;;;;5067056;28;20055;-73
2023/05/29 10:15:15;;;;;;;5.60;2.00;;;19.20;52.10;;;;;;5068072;28;20029;-71
2023/05/29 10:18:12;;;;;;;8.23;2.03;;;19.30;51.60;;;;;;5068519;28;20036;-72
2023/05/29 10:20:38;;;;;;;7.25;2.38;;;19.30;51.80;;;;;;5067305;28;20299;-73
2023/05/29 10:23:05;;;;;;;7.57;2.22;;;19.40;51.50;;;;;;5069805;28;20490;-71
2023/05/29 10:25:35;;;;;;;6.53;2.60;;;19.10;50.10;;;;;;5069140;28;20033;-70
2023/05/29 10:28:01;;;;;;;5.55;2.00;;;19.10;50.40;;;;;;5067599;28;20382;-72
2023/05/29 10:30:50;;;;;;;6.45;2.20;;;19.20;50.90;;;;;;5068389;28;20021;-73
2023/05/29 10:33:50;;;;;;;8.00;2.33;;;19.40;50.00;;;;;;5069477;28;20020;-73
2023/05/29 10:36:21;;;;;;;6.22;2.20;;;19.40;49.60;;;;;;5072717;28;20765;-72
2023/05/29 10:38:48;;;;;;;7.73;2.47;;;19.50;49.50;;;;;;5072490;28;20028;-73
2023/05/29 10:41:26;;;;;;;6.03;2.13;;;19.60;49.20;;;;;;5067821;28;20102;-73
2023/05/29 10:43:56;;;;;;;6.57;2.30;;;19.70;49.00;;;;;;5068998;28;20029;-73
2023/05/29 10:46:42;;;;;;;4.45;1.73;;;19.80;49.10;;;;;;5068953;28;20498;-71
2023/05/29 10:49:16;;;;;;;6.90;2.22;;;19.90;48.60;;;;;;5068350;28;20028;-72
2023/05/29 10:51:42;;;;;;;4.50;1.98;;;19.80;48.20;;;;;;5071182;28;20651;-73
2023/05/29 10:54:08;;;;;;;5.32;2.40;;;19.80;48.00;;;;;;5073313;28;20102;-72
2023/05/29 10:56:33;;;;;;;8.00;2.80;;;19.80;47.90;;;;;;5070198;28;20024;-71
2023/05/29 10:59:02;;;;;;;7.25;2.20;;;19.30;47.00;;;;;;5071550;28;20036;-73
2023/05/29 11:01:30;;;;;;;7.80;2.28;;;19.30;48.30;;;;;;5071070;28;20024;-71
2023/05/29 11:04:17;;;;;;;6.15;2.40;;;19.10;48.50;;;;;;5071028;28;20109;-73
2023/05/29 11:06:43;;;;;;;6.80;2.20;;;19.10;49.00;;;;;;5070761;28;20024;-72
2023/05/29 11:09:34;;;;;;;7.40;2.20;;;19.30;49.00;;;;;;5071446;28;20029;-73
2023/05/29 11:12:13;;;;;;;8.75;2.70;;;19.40;48.40;;;;;;5069510;28;20082;-73
2023/05/29 11:14:54;;;;;;;6.05;2.30;;;19.20;47.80;;;;;;5071898;28;20283;-72
2023/05/29 11:17:29;;;;;;;7.07;2.70;;;19.30;48.30;;;;;;5072666;28;20034;-73
2023/05/29 11:19:57;;;;;;;8.93;2.40;;;19.40;48.00;;;;;;5070046;28;20179;-72
2023/05/29 11:22:32;;;;;;;7.60;2.20;;;19.60;48.10;;;;;;5066190;28;20689;-73
2023/05/29 11:24:59;;;;;;;8.57;2.80;;;19.70;47.80;;;;;;5072843;28;20082;-72
2023/05/29 11:27:25;;;;;;;5.70;2.30;;;19.70;46.70;;;;;;5073628;28;20024;-72
2023/05/29 11:29:55;;;;;;;6.75;2.00;;;19.80;47.00;;;;;;5068885;28;20029;-72
2023/05/29 11:32:25;;;;;;;6.50;2.47;;;19.90;47.00;;;;;;5074537;28;20424;-73
2023/05/29 11:34:53;;;;;;;7.07;2.80;;;20.10;46.90;;;;;;5069432;28;20016;-73
2023/05/29 11:37:19;;;;;;;7.03;2.30;;;20.10;47.50;;;;;;5070332;28;20351;-72
2023/05/29 11:39:45;;;;;;;13.05;2.50;;;20.30;46.50;;;;;;5070191;28;20814;-73
2023/05/29 11:42:11;;;;;;;6.57;2.47;;;20.40;46.40;;;;;;5072096;28;20261;-73
2023/05/29 11:44:37;;;;;;;7.47;2.30;;;20.50;46.30;;;;;;5072479;28;20025;-73
2023/05/29 11:47:04;;;;;;;5.47;2.25;;;20.60;46.20;;;;;;5070947;28;20017;-72
2023/05/29 11:49:32;;;;;;;7.85;2.50;;;20.60;45.30;;;;;;5069652;28;20029;-70
2023/05/29 11:52:13;;;;;;;6.70;2.38;;;20.40;45.50;;;;;;5067472;28;20020;-71
2023/05/29 11:54:40;;;;;;;7.85;2.17;;;20.50;45.40;;;;;;5067960;28;20036;-73
2023/05/29 11:57:06;;;;;;;8.07;2.97;;;20.70;44.90;;;;;;5070662;28;20036;-72
2023/05/29 11:59:32;;;;;;;6.43;2.20;;;20.50;44.90;;;;;;5070780;28;20053;-73
2023/05/29 12:01:59;;;;;;;7.57;2.90;;;20.50;44.90;;;;;;5069796;28;20513;-71
2023/05/29 12:04:24;;;;;;;6.90;2.53;;;20.50;44.90;;;;;;5068788;28;20032;-70
2023/05/29 12:06:50;;;;;;;8.73;2.80;;;20.40;44.60;;;;;;5069419;28;20495;-72
2023/05/29 12:09:29;;;;;;;8.02;2.47;;;20.50;44.80;;;;;;5067762;28;20046;-72
2023/05/29 12:12:04;;;;;;;8.20;2.90;;;20.60;44.70;;;;;;5069329;28;20028;-71
2023/05/29 12:14:30;;;;;;;9.90;3.45;;;20.50;44.20;;;;;;5068601;28;20102;-72
2023/05/29 12:16:56;;;;;;;7.78;2.50;;;20.50;44.40;;;;;;5070823;28;20024;-71
2023/05/29 12:19:21;;;;;;;7.07;2.60;;;20.50;44.20;;;;;;5071931;28;20025;-72
2023/05/29 12:21:47;;;;;;;6.72;2.33;;;20.60;44.50;;;;;;5070200;28;20508;-72
2023/05/29 12:24:13;;;;;;;6.82;2.20;;;20.80;44.40;;;;;;5071562;28;20025;-73
2023/05/29 12:26:39;;;;;;;8.45;2.90;;;20.90;43.70;;;;;;5069696;28;20071;-73
2023/05/29 12:29:05;;;;;;;6.47;2.70;;;20.90;43.40;;;;;;5071738;28;20056;-73
2023/05/29 12:31:32;;;;;;;6.60;2.10;;;20.90;42.80;;;;;;5071162;28;20079;-72
2023/05/29 12:34:17;;;;;;;6.82;2.33;;;20.90;42.70;;;;;;5071424;28;20028;-70
2023/05/29 12:36:43;;;;;;;8.15;2.53;;;20.90;42.20;;;;;;5070955;28;20087;-73
2023/05/29 12:39:09;;;;;;;5.82;2.20;;;20.60;43.10;;;;;;5069254;28;20044;-72
2023/05/29 12:41:36;;;;;;;9.65;2.78;;;20.80;43.60;;;;;;5069162;28;20025;-73
2023/05/29 12:44:03;;;;;;;6.80;2.42;;;20.80;43.10;;;;;;5066669;28;20043;-71
2023/05/29 12:46:39;;;;;;;6.97;2.40;;;20.80;43.40;;;;;;5067883;28;20119;-72